This demonstration page uses our WeatherBlox Daily Observations layout. Learn more.

Left ArrowRight Arrow

53.60534, 11.34579

Hourly Observations for March 1, 2021

Temp ( °F °C ) Dew Point ( °F °C ) Humidity (%) Winds ( mph kmh ) Pressure ( in mb ) Visibility ( mi km ) Precip ( " mm )
7:20 am 07:20 Mostly Cloudy 39 4 39 4 100 100 WSW 3 6 30.57 1035 30 48.2802 N/A
7:50 am 07:50 Mostly Cloudy 39 4 39 4 100 100 VRB 2 4 30.6 1036 30 48.2802 N/A
8:20 am 08:20 Mostly Cloudy 39 4 37 3 93 93 VRB 2 4 30.6 1036 30 48.2802 N/A
8:50 am 08:50 Mostly Cloudy 39 4 36 2 87 87 WSW 3 6 30.6 1036 30 48.2802 N/A
9:20 am 09:20 Mostly Cloudy 41 5 27 -3 57 57 VRB 2 4 30.6 1036 30 48.2802 N/A
9:50 am 09:50 Mostly Cloudy 41 5 36 2 81 81 SW 5 7 30.6 1036 30 48.2802 N/A
10:20 am 10:20 Mostly Cloudy 41 5 37 3 87 87 VRB 3 6 30.6 1036 30 48.2802 N/A
10:50 am 10:50 Mostly Cloudy 41 5 36 2 81 81 SSW 5 7 30.6 1036 30 48.2802 N/A
11:20 am 11:20 Mostly Cloudy 41 5 37 3 87 87 SW 5 7 30.6 1036 30 48.2802 N/A
11:50 am 11:50 Mostly Cloudy 43 6 37 3 81 81 VRB 2 4 30.6 1036 30 48.2802 N/A
12:20 pm 12:20 Mostly Cloudy 45 7 37 3 76 76 VRB 3 6 30.59 1036 30 48.2802 N/A
12:50 pm 12:50 Partly Cloudy 45 7 36 2 71 71 SW 5 7 30.59 1036 30 48.2802 N/A
1:20 pm 13:20 Partly Cloudy 43 6 37 3 81 81 VRB 3 6 30.6 1036 30 48.2802 N/A
1:50 pm 13:50 Mostly Sunny 46 8 36 2 66 66 VRB 3 6 30.59 1036 7 11.26538 N/A
2:20 pm 14:20 Mostly Sunny 46 8 37 3 71 71 WSW 6 9 30.57 1035 7 11.26538 N/A
2:50 pm 14:50 Mostly Sunny 46 8 36 2 66 66 S 3 6 30.57 1035 7 11.26538 N/A
3:20 pm 15:20 Mostly Sunny 48 9 37 3 66 66 SW 5 7 30.56 1035 7 11.26538 N/A
3:50 pm 15:50 Mostly Sunny 48 9 37 3 66 66 SSW 3 6 30.56 1035 7 11.26538 N/A
4:20 pm 16:20 Mostly Sunny 48 9 37 3 66 66 SW 3 6 30.56 1035 7 11.26538 N/A
4:50 pm 16:50 Mostly Sunny 46 8 37 3 71 71 VRB 2 4 30.57 1035 7 11.26538 N/A
5:20 pm 17:20 Mostly Sunny 46 8 37 3 71 71 VRB 2 4 30.57 1035 7 11.26538 N/A
5:50 pm 17:50 Mostly Sunny 45 7 37 3 76 76 WSW 2 4 30.57 1035 7 11.26538 N/A
6:20 pm 18:20 Mostly Clear 41 5 37 3 87 87 VRB 1 2 30.57 1035 7 11.26538 N/A
6:50 pm 18:50 Mostly Clear 41 5 37 3 87 87 VRB 1 2 30.57 1035 7 11.26538 N/A
7:20 pm 19:20 Mostly Clear 39 4 37 3 93 93 Calm 30.57 1035 7 11.26538 N/A
7:50 pm 19:50 Mostly Clear 37 3 36 2 93 93 ENE 1 2 30.57 1035 7 11.26538 N/A

Powered by AerisWeather